Time;durP1;ratioP1;P1;durP2;ratioP2;P2;SDS_P1;SDS_P2;PMS_P1;PMS_P2;Temp;Humidity;BMP_temperature;BMP_pressure;BME280_temperature;BME280_humidity;BME280_pressure;Samples;Min_cycle;Max_cycle;Signal;HPM_P1;HPM_P2
2022/04/13 00:01:04;;;;;;;;;;;;;;;;;;5136562;27;20374;-75
2022/04/13 00:03:29;;;;;;;;;;;;;;;;;;5134236;27;19915;-76
2022/04/13 00:05:55;;;;;;;;;;;;;;;;;;5136363;27;19916;-77
2022/04/13 00:08:21;;;;;;;;;;;;;;;;;;5120430;27;20286;-75
2022/04/13 00:10:46;;;;;;;;;;;;;;;;;;5115954;28;19966;-75
2022/04/13 00:13:11;;;;;;;;;;;;;;;;;;5115742;28;19926;-75
2022/04/13 00:15:39;;;;;;;;;;;;;;;;;;5115307;28;19923;-76
2022/04/13 00:18:06;;;;;;;;;;;;;;;;;;5127184;27;19916;-78
2022/04/13 00:20:33;;;;;;;;;;;;;;;;;;5127146;27;19926;-75
2022/04/13 00:22:59;;;;;;;;;;;;;;;;;;5121233;27;20385;-75
2022/04/13 00:25:24;;;;;;;;;;;;;;;;;;5120754;27;19915;-75
2022/04/13 00:27:50;;;;;;;;;;;;;;;;;;5127075;27;19915;-75
2022/04/13 00:30:15;;;;;;;;;;;;;;;;;;5122085;27;19916;-76
2022/04/13 00:32:41;;;;;;;;;;;;;;;;;;5133303;27;19919;-80
2022/04/13 00:35:06;;;;;;;;;;;;;;;;;;5124219;27;19963;-75
2022/04/13 00:37:32;;;;;;;;;;;;;;;;;;5125461;27;20017;-75
2022/04/13 00:39:57;;;;;;;;;;;;;;;;;;5121791;27;19946;-76
2022/04/13 00:42:24;;;;;;;;;;;;;;;;;;5125445;27;19916;-76
2022/04/13 00:44:49;;;;;;;;;;;;;;;;;;5131131;27;19969;-75
2022/04/13 00:47:15;;;;;;;;;;;;;;;;;;5133594;27;19915;-76
2022/04/13 00:49:40;;;;;;;;;;;;;;;;;;5128765;27;20363;-76
2022/04/13 00:52:06;;;;;;;;;;;;;;;;;;5119835;27;19916;-75
2022/04/13 00:54:32;;;;;;;;;;;;;;;;;;5135453;27;19919;-76
2022/04/13 00:56:58;;;;;;;;;;;;;;;;;;5126320;27;19916;-75
2022/04/13 00:59:24;;;;;;;;;;;;;;;;;;5122198;27;19916;-75
2022/04/13 01:01:51;;;;;;;;;;;;;;;;;;5127048;27;19922;-75
2022/04/13 01:04:17;;;;;;;;;;;;;;;;;;5135511;27;19915;-75
2022/04/13 01:06:43;;;;;;;;;;;;;;;;;;5120159;27;19938;-77
2022/04/13 01:09:10;;;;;;;;;;;;;;;;;;5117735;27;19920;-75
2022/04/13 01:11:35;;;;;;;;;;;;;;;;;;5123011;27;19916;-76
2022/04/13 01:14:01;;;;;;;;;;;;;;;;;;5128566;27;19980;-76
2022/04/13 01:16:26;;;;;;;;;;;;;;;;;;5123929;27;19915;-76
2022/04/13 01:18:53;;;;;;;;;;;;;;;;;;5132531;27;19960;-75
2022/04/13 01:21:20;;;;;;;;;;;;;;;;;;5122430;27;19915;-76
2022/04/13 01:23:50;;;;;;;;;;;;;;;;;;5121983;27;19961;-75
2022/04/13 01:26:15;;;;;;;;;;;;;;;;;;5117188;27;21746;-76
2022/04/13 01:28:41;;;;;;;;;;;;;;;;;;5121482;27;19947;-75
2022/04/13 01:31:06;;;;;;;;;;;;;;;;;;5126465;27;19923;-75
2022/04/13 01:33:32;;;;;;;;;;;;;;;;;;5119079;27;19916;-76
2022/04/13 01:36:00;;;;;;;;;;;;;;;;;;5114204;28;20392;-75
2022/04/13 01:38:27;;;;;;;;;;;;;;;;;;5114120;28;20371;-75
2022/04/13 01:40:53;;;;;;;;;;;;;;;;;;5114942;28;20274;-76
2022/04/13 01:43:18;;;;;;;;;;;;;;;;;;5114813;28;19916;-76
2022/04/13 01:45:44;;;;;;;;;;;;;;;;;;5134511;27;19916;-76
2022/04/13 01:48:09;;;;;;;;;;;;;;;;;;5125910;28;19922;-76
2022/04/13 01:50:35;;;;;;;;;;;;;;;;;;5114156;28;19915;-76
2022/04/13 01:53:00;;;;;;;;;;;;;;;;;;5129947;28;19915;-76
2022/04/13 01:55:26;;;;;;;;;;;;;;;;;;5134384;28;19915;-75
2022/04/13 01:57:51;;;;;;;;;;;;;;;;;;5134424;27;20281;-75
2022/04/13 02:00:17;;;;;;;;;;;;;;;;;;5125092;27;19916;-76
2022/04/13 02:02:42;;;;;;;;;;;;;;;;;;5114064;28;20355;-76
2022/04/13 02:05:08;;;;;;;;;;;;;;;;;;5114028;28;19916;-75
2022/04/13 02:07:34;;;;;;;;;;;;;;;;;;5131894;28;19975;-76
2022/04/13 02:09:59;;;;;;;;;;;;;;;;;;5134607;28;20275;-75
2022/04/13 02:12:25;;;;;;;;;;;;;;;;;;5134557;28;19941;-75
2022/04/13 02:14:50;;;;;;;;;;;;;;;;;;5134312;27;19926;-75
2022/04/13 02:17:16;;;;;;;;;;;;;;;;;;5134057;28;19968;-75
2022/04/13 02:19:43;;;;;;;;;;;;;;;;;;5134324;27;20294;-75
2022/04/13 02:22:08;;;;;;;;;;;;;;;;;;5134505;27;19911;-76
2022/04/13 02:24:38;;;;;;;;;;;;;;;;;;5134300;28;19944;-75
2022/04/13 02:27:03;;;;;;;;;;;;;;;;;;5134411;27;19911;-75
2022/04/13 02:29:29;;;;;;;;;;;;;;;;;;5134222;27;20370;-75
2022/04/13 02:31:54;;;;;;;;;;;;;;;;;;5134208;28;19965;-75
2022/04/13 02:34:20;;;;;;;;;;;;;;;;;;5133809;28;19915;-75
2022/04/13 02:36:45;;;;;;;;;;;;;;;;;;5134141;27;20278;-75
2022/04/13 02:39:11;;;;;;;;;;;;;;;;;;5132620;27;20431;-75
2022/04/13 02:41:36;;;;;;;;;;;;;;;;;;5117228;28;19980;-76
2022/04/13 02:44:01;;;;;;;;;;;;;;;;;;5132277;28;20393;-76
2022/04/13 02:46:27;;;;;;;;;;;;;;;;;;5126161;28;19912;-76
2022/04/13 02:48:52;;;;;;;;;;;;;;;;;;5115196;28;19916;-75
2022/04/13 02:51:18;;;;;;;;;;;;;;;;;;5120421;28;19918;-75
2022/04/13 02:53:43;;;;;;;;;;;;;;;;;;5117410;28;20054;-76
2022/04/13 02:56:09;;;;;;;;;;;;;;;;;;5117030;28;19919;-75
2022/04/13 02:58:34;;;;;;;;;;;;;;;;;;5125434;28;20291;-75
2022/04/13 03:01:00;;;;;;;;;;;;;;;;;;5124794;27;19927;-75
2022/04/13 03:03:25;;;;;;;;;;;;;;;;;;5128974;27;20351;-75
2022/04/13 03:05:50;;;;;;;;;;;;;;;;;;5123491;27;19976;-76
2022/04/13 03:08:16;;;;;;;;;;;;;;;;;;5127819;27;20398;-76
2022/04/13 03:10:43;;;;;;;;;;;;;;;;;;5116820;28;19920;-76
2022/04/13 03:13:10;;;;;;;;;;;;;;;;;;5126422;27;20264;-76
2022/04/13 03:15:35;;;;;;;;;;;;;;;;;;5116951;28;19922;-76
2022/04/13 03:18:01;;;;;;;;;;;;;;;;;;5116698;28;20011;-77
2022/04/13 03:20:26;;;;;;;;;;;;;;;;;;5116853;28;19915;-75
2022/04/13 03:22:52;;;;;;;;;;;;;;;;;;5121228;27;19915;-76
2022/04/13 03:25:17;;;;;;;;;;;;;;;;;;5130468;27;19915;-74
2022/04/13 03:27:43;;;;;;;;;;;;;;;;;;5125043;27;19915;-75
2022/04/13 03:30:08;;;;;;;;;;;;;;;;;;5130492;27;19916;-75
2022/04/13 03:32:37;;;;;;;;;;;;;;;;;;5132712;27;20480;-76
2022/04/13 03:35:03;;;;;;;;;;;;;;;;;;5124573;27;20259;-75
2022/04/13 03:37:29;;;;;;;;;;;;;;;;;;5123316;27;19953;-75
2022/04/13 03:39:54;;;;;;;;;;;;;;;;;;5116160;28;20028;-75
2022/04/13 03:42:19;;;;;;;;;;;;;;;;;;5133484;27;20438;-75
2022/04/13 03:44:45;;;;;;;;;;;;;;;;;;5134409;27;19973;-75
2022/04/13 03:47:10;;;;;;;;;;;;;;;;;;5124725;27;20018;-76
2022/04/13 03:49:36;;;;;;;;;;;;;;;;;;5125034;27;19973;-75
2022/04/13 03:52:01;;;;;;;;;;;;;;;;;;5134551;27;19951;-75
2022/04/13 03:54:27;;;;;;;;;;;;;;;;;;5136187;27;19922;-75
2022/04/13 03:56:53;;;;;;;;;;;;;;;;;;5136183;27;19915;-75
2022/04/13 03:59:20;;;;;;;;;;;;;;;;;;5126562;27;19969;-76
2022/04/13 04:01:46;;;;;;;;;;;;;;;;;;5128558;27;19923;-77
2022/04/13 04:04:11;;;;;;;;;;;;;;;;;;5136503;27;19923;-75
2022/04/13 04:06:37;;;;;;;;;;;;;;;;;;5136352;27;19960;-75
2022/04/13 04:09:03;;;;;;;;;;;;;;;;;;5136428;27;19916;-76
2022/04/13 04:11:29;;;;;;;;;;;;;;;;;;5136036;27;20079;-75
2022/04/13 04:13:55;;;;;;;;;;;;;;;;;;5122081;27;19930;-76
2022/04/13 04:16:20;;;;;;;;;;;;;;;;;;5127804;27;20283;-76
2022/04/13 04:18:48;;;;;;;;;;;;;;;;;;5115202;28;19927;-75
2022/04/13 04:21:15;;;;;;;;;;;;;;;;;;5135838;27;19922;-75
2022/04/13 04:23:40;;;;;;;;;;;;;;;;;;5135888;27;20299;-75
2022/04/13 04:26:06;;;;;;;;;;;;;;;;;;5136221;27;19921;-75
2022/04/13 04:28:31;;;;;;;;;;;;;;;;;;5136060;27;19969;-75
2022/04/13 04:30:56;;;;;;;;;;;;;;;;;;5136117;27;20002;-75
2022/04/13 04:33:23;;;;;;;;;;;;;;;;;;5136097;27;19954;-74
2022/04/13 04:35:50;;;;;;;;;;;;;;;;;;5135752;27;19923;-75
2022/04/13 04:38:15;;;;;;;;;;;;;;;;;;5135532;27;19915;-75
2022/04/13 04:40:41;;;;;;;;;;;;;;;;;;5135886;27;20348;-76
2022/04/13 04:43:06;;;;;;;;;;;;;;;;;;5135898;27;19915;-75
2022/04/13 04:45:32;;;;;;;;;;;;;;;;;;5135862;27;19970;-76
2022/04/13 04:48:04;;;;;;;;;;;;;;;;;;5135637;27;19915;-76
2022/04/13 04:50:30;;;;;;;;;;;;;;;;;;5135491;27;19922;-75
2022/04/13 04:52:55;;;;;;;;;;;;;;;;;;5135631;27;20476;-77
2022/04/13 04:55:21;;;;;;;;;;;;;;;;;;5135625;27;20029;-75
2022/04/13 04:57:47;;;;;;;;;;;;;;;;;;5135533;27;19915;-75
2022/04/13 05:00:14;;;;;;;;;;;;;;;;;;5135683;27;19916;-75
2022/04/13 05:02:39;;;;;;;;;;;;;;;;;;5135563;27;19916;-76
2022/04/13 05:05:05;;;;;;;;;;;;;;;;;;5135523;27;20271;-75
2022/04/13 05:07:31;;;;;;;;;;;;;;;;;;5135308;27;19966;-75
2022/04/13 05:09:58;;;;;;;;;;;;;;;;;;5135185;27;19947;-75
2022/04/13 05:12:23;;;;;;;;;;;;;;;;;;5135234;27;19922;-74
2022/04/13 05:14:49;;;;;;;;;;;;;;;;;;5135222;27;19916;-75
2022/04/13 05:17:15;;;;;;;;;;;;;;;;;;5135159;27;19953;-75
2022/04/13 05:19:40;;;;;;;;;;;;;;;;;;5135132;27;19973;-76
2022/04/13 05:22:05;;;;;;;;;;;;;;;;;;5135714;27;19968;-75
2022/04/13 05:24:31;;;;;;;;;;;;;;;;;;5134663;27;20397;-75
2022/04/13 05:26:56;;;;;;;;;;;;;;;;;;5135473;27;19915;-75
2022/04/13 05:29:22;;;;;;;;;;;;;;;;;;5135167;27;19916;-75
2022/04/13 05:31:47;;;;;;;;;;;;;;;;;;5134852;27;19980;-76
2022/04/13 05:34:12;;;;;;;;;;;;;;;;;;5135010;27;19930;-77
2022/04/13 05:36:38;;;;;;;;;;;;;;;;;;5134833;27;19915;-75
2022/04/13 05:39:03;;;;;;;;;;;;;;;;;;5134531;27;19942;-75
2022/04/13 05:41:29;;;;;;;;;;;;;;;;;;5134987;27;19915;-75
2022/04/13 05:43:54;;;;;;;;;;;;;;;;;;5134897;27;19932;-75
2022/04/13 05:46:20;;;;;;;;;;;;;;;;;;5134839;27;19915;-75
2022/04/13 05:48:45;;;;;;;;;;;;;;;;;;5134894;27;19915;-75
2022/04/13 05:51:11;;;;;;;;;;;;;;;;;;5134879;28;20251;-75
2022/04/13 05:53:36;;;;;;;;;;;;;;;;;;5134704;28;20398;-76
2022/04/13 05:56:02;;;;;;;;;;;;;;;;;;5134833;27;19981;-76
2022/04/13 05:58:28;;;;;;;;;;;;;;;;;;5134628;27;19955;-75
2022/04/13 06:00:54;;;;;;;;;;;;;;;;;;5133331;28;19968;-75
2022/04/13 06:03:20;;;;;;;;;;;;;;;;;;5134797;27;20393;-74
2022/04/13 06:05:46;;;;;;;;;;;;;;;;;;5134554;27;19916;-75
2022/04/13 06:08:12;;;;;;;;;;;;;;;;;;5134665;27;20386;-75
2022/04/13 06:10:37;;;;;;;;;;;;;;;;;;5134584;27;19922;-75
2022/04/13 06:13:03;;;;;;;;;;;;;;;;;;5134546;28;19938;-75
2022/04/13 06:15:28;;;;;;;;;;;;;;;;;;5134456;28;19965;-75
2022/04/13 06:17:54;;;;;;;;;;;;;;;;;;5134472;27;19927;-75
2022/04/13 06:20:20;;;;;;;;;;;;;;;;;;5134358;27;19916;-76
2022/04/13 06:22:45;;;;;;;;;;;;;;;;;;5134666;28;20286;-75
2022/04/13 06:25:12;;;;;;;;;;;;;;;;;;5134604;28;20002;-75
2022/04/13 06:27:37;;;;;;;;;;;;;;;;;;5134473;27;20013;-75
2022/04/13 06:30:03;;;;;;;;;;;;;;;;;;5134480;27;19985;-75
2022/04/13 06:32:32;;;;;;;;;;;;;;;;;;5132993;28;20291;-75
2022/04/13 06:34:58;;;;;;;;;;;;;;;;;;5135605;27;19961;-74
2022/04/13 06:37:24;;;;;;;;;;;;;;;;;;5138243;27;20394;-75
2022/04/13 06:39:49;;;;;;;;;;;;;;;;;;5137825;27;19927;-74
2022/04/13 06:42:15;;;;;;;;;;;;;;;;;;5138192;27;19915;-74
2022/04/13 06:44:40;;;;;;;;;;;;;;;;;;5137932;27;19926;-74
2022/04/13 06:47:06;;;;;;;;;;;;;;;;;;5137095;27;20409;-74
2022/04/13 06:49:31;;;;;;;;;;;;;;;;;;5138006;27;19971;-75
2022/04/13 06:51:56;;;;;;;;;;;;;;;;;;5137837;27;19925;-73
2022/04/13 06:54:22;;;;;;;;;;;;;;;;;;5138012;27;20006;-74
2022/04/13 06:56:48;;;;;;;;;;;;;;;;;;5137857;27;19916;-74
2022/04/13 06:59:13;;;;;;;;;;;;;;;;;;5137900;27;19922;-76
2022/04/13 07:01:39;;;;;;;;;;;;;;;;;;5137756;27;19950;-76
2022/04/13 07:04:05;;;;;;;;;;;;;;;;;;5137857;27;20009;-75
2022/04/13 07:06:30;;;;;;;;;;;;;;;;;;5137799;27;20013;-77
2022/04/13 07:08:56;;;;;;;;;;;;;;;;;;5137855;27;20290;-77
2022/04/13 07:11:21;;;;;;;;;;;;;;;;;;5137688;27;19919;-75
2022/04/13 07:13:46;;;;;;;;;;;;;;;;;;5137605;27;20367;-75
2022/04/13 07:16:12;;;;;;;;;;;;;;;;;;5137527;27;20278;-75
2022/04/13 07:18:37;;;;;;;;;;;;;;;;;;5137509;27;20347;-75
2022/04/13 07:21:03;;;;;;;;;;;;;;;;;;5137279;27;19916;-75
2022/04/13 07:23:29;;;;;;;;;;;;;;;;;;5136180;27;19915;-75
2022/04/13 07:25:55;;;;;;;;;;;;;;;;;;5137260;27;19919;-75
2022/04/13 07:28:20;;;;;;;;;;;;;;;;;;5137381;27;20002;-75
2022/04/13 07:30:45;;;;;;;;;;;;;;;;;;5137293;27;19915;-75
2022/04/13 07:33:11;;;;;;;;;;;;;;;;;;5137129;27;19919;-75
2022/04/13 07:35:36;;;;;;;;;;;;;;;;;;5137058;27;19920;-75
2022/04/13 07:38:02;;;;;;;;;;;;;;;;;;5137139;27;19916;-75
2022/04/13 07:40:27;;;;;;;;;;;;;;;;;;5136639;27;19927;-75
2022/04/13 07:42:53;;;;;;;;;;;;;;;;;;5137160;27;19923;-75
2022/04/13 07:45:18;;;;;;;;;;;;;;;;;;5137050;27;19965;-75
2022/04/13 07:47:44;;;;;;;;;;;;;;;;;;5136222;27;19961;-75
2022/04/13 07:50:12;;;;;;;;;;;;;;;;;;5136884;27;19923;-77
2022/04/13 07:52:38;;;;;;;;;;;;;;;;;;5136981;27;19919;-77
2022/04/13 07:55:04;;;;;;;;;;;;;;;;;;5136860;27;20457;-75
2022/04/13 07:57:30;;;;;;;;;;;;;;;;;;5136636;27;19915;-75
2022/04/13 07:59:55;;;;;;;;;;;;;;;;;;5136444;27;19919;-75
2022/04/13 08:02:21;;;;;;;;;;;;;;;;;;5136533;27;19968;-75
2022/04/13 08:04:47;;;;;;;;;;;;;;;;;;5136641;27;20427;-75
2022/04/13 08:07:12;;;;;;;;;;;;;;;;;;5136713;27;20419;-75
2022/04/13 08:09:38;;;;;;;;;;;;;;;;;;5136529;27;19915;-75
2022/04/13 08:12:04;;;;;;;;;;;;;;;;;;5136599;27;19919;-75
2022/04/13 08:14:29;;;;;;;;;;;;;;;;;;5136459;27;19923;-75
2022/04/13 08:16:55;;;;;;;;;;;;;;;;;;5136553;27;20263;-75
2022/04/13 08:19:20;;;;;;;;;;;;;;;;;;5136330;27;19916;-75
2022/04/13 08:21:46;;;;;;;;;;;;;;;;;;5136022;27;19923;-75
2022/04/13 08:24:11;;;;;;;;;;;;;;;;;;5136474;27;19919;-76
2022/04/13 08:26:37;;;;;;;;;;;;;;;;;;5136309;27;19915;-75
2022/04/13 08:29:03;;;;;;;;;;;;;;;;;;5136190;27;19915;-75
2022/04/13 08:31:28;;;;;;;;;;;;;;;;;;5136152;27;19922;-75
2022/04/13 08:33:54;;;;;;;;;;;;;;;;;;5135841;27;20355;-75
2022/04/13 08:36:19;;;;;;;;;;;;;;;;;;5135941;27;20393;-78
2022/04/13 08:38:45;;;;;;;;;;;;;;;;;;5135738;27;20435;-77
2022/04/13 08:41:13;;;;;;;;;;;;;;;;;;5135673;27;20433;-75
2022/04/13 08:43:52;;;;;;;;;;;;;;;;;;5135790;27;19923;-76
2022/04/13 08:46:26;;;;;;;;;;;;;;;;;;5135867;27;19915;-75
2022/04/13 08:48:55;;;;;;;;;;;;;;;;;;5135767;27;19919;-75
2022/04/13 08:51:21;;;;;;;;;;;;;;;;;;5135789;27;19930;-75
2022/04/13 08:54:07;;;;;;;;;;;;;;;;;;5135753;27;19916;-76
2022/04/13 08:56:34;;;;;;;;;;;;;;;;;;5134935;27;19919;-75
2022/04/13 08:59:09;;;;;;;;;;;;;;;;;;5134635;27;19919;-74
2022/04/13 09:01:34;;;;;;;;;;;;;;;;;;5135135;27;19998;-75
2022/04/13 09:04:00;;;;;;;;;;;;;;;;;;5135381;27;19953;-75
2022/04/13 09:06:27;;;;;;;;;;;;;;;;;;5135448;27;19916;-75
2022/04/13 09:08:54;;;;;;;;;;;;;;;;;;5135357;27;19915;-74
2022/04/13 09:11:21;;;;;;;;;;;;;;;;;;5135438;27;19951;-76
2022/04/13 09:13:46;;;;;;;;;;;;;;;;;;5135113;27;19917;-75
2022/04/13 09:16:12;;;;;;;;;;;;;;;;;;5135271;27;20006;-77
2022/04/13 09:18:38;;;;;;;;;;;;;;;;;;5135336;27;19919;-75
2022/04/13 09:21:03;;;;;;;;;;;;;;;;;;5134968;27;20346;-75
2022/04/13 09:23:29;;;;;;;;;;;;;;;;;;5135060;27;19967;-75
2022/04/13 09:25:56;;;;;;;;;;;;;;;;;;5134957;27;19926;-75
2022/04/13 09:28:21;;;;;;;;;;;;;;;;;;5133818;27;19972;-75
2022/04/13 09:30:47;;;;;;;;;;;;;;;;;;5135065;27;19951;-75
2022/04/13 09:33:12;;;;;;;;;;;;;;;;;;5134830;27;19916;-75
2022/04/13 09:35:38;;;;;;;;;;;;;;;;;;5134815;27;19915;-74
2022/04/13 09:38:04;;;;;;;;;;;;;;;;;;5134895;27;20014;-75
2022/04/13 09:40:30;;;;;;;;;;;;;;;;;;5134749;27;19919;-75
2022/04/13 09:43:05;;;;;;;;;;;;;;;;;;5135146;27;19915;-75
2022/04/13 09:45:42;;;;;;;;;;;;;;;;;;5135200;27;19915;-75
2022/04/13 09:48:09;;;;;;;;;;;;;;;;;;5134852;27;19923;-75
2022/04/13 09:50:34;;;;;;;;;;;;;;;;;;5134796;27;19916;-75
2022/04/13 09:53:03;;;;;;;;;;;;;;;;;;5134775;27;19915;-75
2022/04/13 09:55:30;;;;;;;;;;;;;;;;;;5134634;27;19915;-75
2022/04/13 09:58:09;;;;;;;;;;;;;;;;;;5134647;27;19919;-74
2022/04/13 10:00:35;;;;;;;;;;;;;;;;;;5134787;27;19915;-75
2022/04/13 10:03:27;;;;;;;;;;;;;;;;;;5134616;27;19922;-76
2022/04/13 10:05:53;;;;;;;;;;;;;;;;;;5129811;27;19915;-75
2022/04/13 10:08:22;;;;;;;;;;;;;;;;;;5133369;28;19922;-75
2022/04/13 10:10:49;;;;;;;;;;;;;;;;;;5137577;27;20362;-75
2022/04/13 10:13:33;;;;;;;;;;;;;;;;;;5138635;27;19923;-75
2022/04/13 10:15:59;;;;;;;;;;;;;;;;;;5137330;27;20410;-77
2022/04/13 10:18:25;;;;;;;;;;;;;;;;;;5139165;27;19972;-75
2022/04/13 10:20:50;;;;;;;;;;;;;;;;;;5138719;27;20316;-75
2022/04/13 10:23:16;;;;;;;;;;;;;;;;;;5138502;27;19922;-75
2022/04/13 10:25:42;;;;;;;;;;;;;;;;;;5137246;27;20018;-74
2022/04/13 10:28:10;;;;;;;;;;;;;;;;;;5138723;27;19911;-75
2022/04/13 10:30:36;;;;;;;;;;;;;;;;;;5138632;27;20336;-74
2022/04/13 10:33:06;;;;;;;;;;;;;;;;;;5138349;27;20383;-74
2022/04/13 10:35:33;;;;;;;;;;;;;;;;;;5138197;27;19999;-76
2022/04/13 10:37:58;;;;;;;;;;;;;;;;;;5138287;27;20018;-75
2022/04/13 10:40:25;;;;;;;;;;;;;;;;;;5138118;27;19951;-75
2022/04/13 10:42:51;;;;;;;;;;;;;;;;;;5138009;27;19916;-74
2022/04/13 10:45:16;;;;;;;;;;;;;;;;;;5137763;27;20006;-75
2022/04/13 10:48:01;;;;;;;;;;;;;;;;;;5137833;27;19955;-74
2022/04/13 10:50:36;;;;;;;;;;;;;;;;;;5138065;27;20002;-74
2022/04/13 10:53:10;;;;;;;;;;;;;;;;;;5138083;27;19916;-74
2022/04/13 10:55:36;;;;;;;;;;;;;;;;;;5137690;27;20320;-75
2022/04/13 10:58:11;;;;;;;;;;;;;;;;;;5137891;27;19915;-75
2022/04/13 11:00:37;;;;;;;;;;;;;;;;;;5137853;27;19916;-74
2022/04/13 11:03:04;;;;;;;;;;;;;;;;;;5137573;27;19923;-74
2022/04/13 11:05:30;;;;;;;;;;;;;;;;;;5137777;27;19911;-74
2022/04/13 11:08:15;;;;;;;;;;;;;;;;;;5137709;27;19919;-75
2022/04/13 11:10:42;;;;;;;;;;;;;;;;;;5137946;27;20415;-75
2022/04/13 11:13:07;;;;;;;;;;;;;;;;;;5137733;27;19923;-74
2022/04/13 11:15:37;;;;;;;;;;;;;;;;;;5137661;27;20279;-74
2022/04/13 11:18:07;;;;;;;;;;;;;;;;;;5137844;27;20260;-74
2022/04/13 11:20:32;;;;;;;;;;;;;;;;;;5137522;27;19920;-74
2022/04/13 11:23:13;;;;;;;;;;;;;;;;;;5136206;27;19915;-75
2022/04/13 11:25:51;;;;;;;;;;;;;;;;;;5137424;27;20310;-75
2022/04/13 11:28:26;;;;;;;;;;;;;;;;;;5137357;27;19923;-75
2022/04/13 11:31:01;;;;;;;;;;;;;;;;;;5137466;27;19927;-75
2022/04/13 11:33:39;;;;;;;;;;;;;;;;;;5137175;27;19916;-76
2022/04/13 11:36:05;;;;;;;;;;;;;;;;;;5137041;27;19915;-74
2022/04/13 11:38:36;;;;;;;;;;;;;;;;;;5137286;27;19919;-75
2022/04/13 11:41:08;;;;;;;;;;;;;;;;;;5137187;27;19916;-74
2022/04/13 11:43:34;;;;;;;;;;;;;;;;;;5136716;27;19995;-74
2022/04/13 11:45:59;;;;;;;;;;;;;;;;;;5136991;27;19920;-74
2022/04/13 11:48:32;;;;;;;;;;;;;;;;;;5135662;27;19918;-74
2022/04/13 11:51:16;;;;;;;;;;;;;;;;;;5136901;27;19916;-74
2022/04/13 11:53:54;;;;;;;;;;;;;;;;;;5136679;27;20378;-73
2022/04/13 11:56:33;;;;;;;;;;;;;;;;;;5136453;27;20363;-73
2022/04/13 11:58:58;;;;;;;;;;;;;;;;;;5136794;27;19916;-75
2022/04/13 12:01:25;;;;;;;;;;;;;;;;;;5136665;27;20268;-74
2022/04/13 12:03:51;;;;;;;;;;;;;;;;;;5136346;27;19922;-76
2022/04/13 12:06:19;;;;;;;;;;;;;;;;;;5136604;27;20017;-75
2022/04/13 12:08:51;;;;;;;;;;;;;;;;;;5136581;27;20260;-73
2022/04/13 12:11:20;;;;;;;;;;;;;;;;;;5136580;27;19968;-75
2022/04/13 12:13:49;;;;;;;;;;;;;;;;;;5136468;27;20002;-75
2022/04/13 12:16:19;;;;;;;;;;;;;;;;;;5136182;27;19958;-74
2022/04/13 12:18:44;;;;;;;;;;;;;;;;;;5136192;27;19920;-76
2022/04/13 12:21:11;;;;;;;;;;;;;;;;;;5134724;27;19975;-76
2022/04/13 12:23:37;;;;;;;;;;;;;;;;;;5136236;27;19969;-76
2022/04/13 12:26:03;;;;;;;;;;;;;;;;;;5136022;27;19962;-74
2022/04/13 12:28:28;;;;;;;;;;;;;;;;;;5136317;27;19915;-75
2022/04/13 12:30:57;;;;;;;;;;;;;;;;;;5135977;27;19915;-75
2022/04/13 12:33:23;;;;;;;;;;;;;;;;;;5137018;27;20461;-74
2022/04/13 12:35:49;;;;;;;;;;;;;;;;;;5133043;27;19915;-76
2022/04/13 12:38:32;;;;;;;;;;;;;;;;;;5124211;27;20425;-75
2022/04/13 12:41:15;;;;;;;;;;;;;;;;;;5129500;27;19928;-76
2022/04/13 12:43:59;;;;;;;;;;;;;;;;;;5131192;27;20277;-78
2022/04/13 12:46:25;;;;;;;;;;;;;;;;;;5132654;27;19964;-76
2022/04/13 12:48:52;;;;;;;;;;;;;;;;;;5134288;27;19923;-75
2022/04/13 12:51:17;;;;;;;;;;;;;;;;;;5133961;27;20411;-76
2022/04/13 12:53:48;;;;;;;;;;;;;;;;;;5130528;27;21356;-75
2022/04/13 12:56:14;;;;;;;;;;;;;;;;;;5129709;27;20000;-76
2022/04/13 12:58:40;;;;;;;;;;;;;;;;;;5131680;27;19920;-80
2022/04/13 13:01:06;;;;;;;;;;;;;;;;;;5130692;27;19927;-78
2022/04/13 13:03:35;;;;;;;;;;;;;;;;;;5130028;27;20308;-78
2022/04/13 13:06:11;;;;;;;;;;;;;;;;;;5129848;27;19924;-73
2022/04/13 13:08:49;;;;;;;;;;;;;;;;;;5134480;27;20306;-75
2022/04/13 13:11:16;;;;;;;;;;;;;;;;;;5134384;27;19915;-76
2022/04/13 13:13:51;;;;;;;;;;;;;;;;;;5134116;27;19955;-77
2022/04/13 13:16:30;;;;;;;;;;;;;;;;;;5133988;27;19941;-76
2022/04/13 13:19:14;;;;;;;;;;;;;;;;;;5122867;27;19977;-80
2022/04/13 13:21:59;;;;;;;;;;;;;;;;;;5118218;27;20287;-79
2022/04/13 13:24:25;;;;;;;;;;;;;;;;;;5120603;27;19919;-76
2022/04/13 13:26:51;;;;;;;;;;;;;;;;;;5133528;27;19962;-75
2022/04/13 13:29:16;;;;;;;;;;;;;;;;;;5134046;27;20000;-78
2022/04/13 13:31:42;;;;;;;;;;;;;;;;;;5134140;27;19971;-75
2022/04/13 13:34:07;;;;;;;;;;;;;;;;;;5134733;27;19984;-77
2022/04/13 13:36:33;;;;;;;;;;;;;;;;;;5134248;27;20442;-81
2022/04/13 13:38:58;;;;;;;;;;;;;;;;;;5134891;27;19920;-80
2022/04/13 13:41:24;;;;;;;;;;;;;;;;;;5135408;27;19926;-80
2022/04/13 13:43:49;;;;;;;;;;;;;;;;;;5134801;27;19919;-81
2022/04/13 13:46:16;;;;;;;;;;;;;;;;;;5139440;27;19995;-79
2022/04/13 13:48:43;;;;;;;;;;;;;;;;;;5139958;27;19962;-81
2022/04/13 13:51:09;;;;;;;;;;;;;;;;;;5136675;28;19915;-77
2022/04/13 13:53:34;;;;;;;;;;;;;;;;;;5127511;27;19923;-77
2022/04/13 13:56:00;;;;;;;;;;;;;;;;;;5126764;27;19944;-78
2022/04/13 13:58:26;;;;;;;;;;;;;;;;;;5132231;28;19916;-76
2022/04/13 14:00:51;;;;;;;;;;;;;;;;;;5129020;28;20030;-80
2022/04/13 14:03:17;;;;;;;;;;;;;;;;;;5121387;28;19919;-75
2022/04/13 14:05:44;;;;;;;;;;;;;;;;;;5118350;27;20433;-76
2022/04/13 14:08:10;;;;;;;;;;;;;;;;;;5118793;28;19919;-78
2022/04/13 14:10:36;;;;;;;;;;;;;;;;;;5121938;28;20368;-75
2022/04/13 14:13:02;;;;;;;;;;;;;;;;;;5121962;28;19946;-76
2022/04/13 14:15:28;;;;;;;;;;;;;;;;;;5121169;28;20391;-78
2022/04/13 14:17:54;;;;;;;;;;;;;;;;;;5113059;28;20013;-76
2022/04/13 14:20:19;;;;;;;;;;;;;;;;;;5114066;28;19920;-81
2022/04/13 14:22:47;;;;;;;;;;;;;;;;;;5119538;28;19927;-75
2022/04/13 14:25:13;;;;;;;;;;;;;;;;;;5129030;28;19923;-75
2022/04/13 14:27:38;;;;;;;;;;;;;;;;;;5132905;27;19915;-77
2022/04/13 14:30:05;;;;;;;;;;;;;;;;;;5133098;27;19915;-76
2022/04/13 14:32:30;;;;;;;;;;;;;;;;;;5114704;28;20392;-77
2022/04/13 14:34:56;;;;;;;;;;;;;;;;;;5128436;27;19915;-73
2022/04/13 14:37:22;;;;;;;;;;;;;;;;;;5126910;28;19920;-78
2022/04/13 14:39:50;;;;;;;;;;;;;;;;;;5125444;28;19967;-78
2022/04/13 14:42:16;;;;;;;;;;;;;;;;;;5125777;27;20005;-78
2022/04/13 14:44:42;;;;;;;;;;;;;;;;;;5128949;28;19923;-75
2022/04/13 14:47:08;;;;;;;;;;;;;;;;;;5127991;27;19922;-75
2022/04/13 14:49:33;;;;;;;;;;;;;;;;;;5124213;27;20370;-79
2022/04/13 14:51:59;;;;;;;;;;;;;;;;;;5125402;27;19920;-77
2022/04/13 14:54:25;;;;;;;;;;;;;;;;;;5117864;28;19920;-76
2022/04/13 14:56:51;;;;;;;;;;;;;;;;;;5129929;27;19954;-77
2022/04/13 14:59:16;;;;;;;;;;;;;;;;;;5128828;27;20406;-77
2022/04/13 15:01:42;;;;;;;;;;;;;;;;;;5125362;27;19976;-77
2022/04/13 15:04:07;;;;;;;;;;;;;;;;;;5127534;27;20367;-77
2022/04/13 15:06:32;;;;;;;;;;;;;;;;;;5136152;27;19915;-76
2022/04/13 15:08:58;;;;;;;;;;;;;;;;;;5131852;27;19915;-76
2022/04/13 15:11:23;;;;;;;;;;;;;;;;;;5125937;27;19959;-76
2022/04/13 15:13:49;;;;;;;;;;;;;;;;;;5126054;27;19915;-76
2022/04/13 15:16:15;;;;;;;;;;;;;;;;;;5127650;27;19940;-76
2022/04/13 15:18:41;;;;;;;;;;;;;;;;;;5126978;27;19935;-75
2022/04/13 15:21:07;;;;;;;;;;;;;;;;;;5131303;27;20390;-76
2022/04/13 15:23:34;;;;;;;;;;;;;;;;;;5120305;27;19919;-75
2022/04/13 15:26:00;;;;;;;;;;;;;;;;;;5115859;28;19942;-75
2022/04/13 15:28:26;;;;;;;;;;;;;;;;;;5115636;28;20268;-78
2022/04/13 15:31:01;;;;;;;;;;;;;;;;;;5116158;28;19935;-75
2022/04/13 15:33:28;;;;;;;;;;;;;;;;;;5118234;28;19922;-76
2022/04/13 15:35:56;;;;;;;;;;;;;;;;;;5115045;28;20410;-77
2022/04/13 15:38:22;;;;;;;;;;;;;;;;;;5116148;28;19930;-76
2022/04/13 15:40:49;;;;;;;;;;;;;;;;;;5116248;28;20365;-76
2022/04/13 15:43:15;;;;;;;;;;;;;;;;;;5116332;28;19916;-75
2022/04/13 15:45:41;;;;;;;;;;;;;;;;;;5114755;28;19916;-74
2022/04/13 15:48:06;;;;;;;;;;;;;;;;;;5115702;28;20401;-75
2022/04/13 15:50:32;;;;;;;;;;;;;;;;;;5115972;28;19969;-75
2022/04/13 15:52:58;;;;;;;;;;;;;;;;;;5115966;28;19963;-77
2022/04/13 15:55:24;;;;;;;;;;;;;;;;;;5115518;28;19916;-74
2022/04/13 15:57:57;;;;;;;;;;;;;;;;;;5115871;28;19950;-75
2022/04/13 16:00:22;;;;;;;;;;;;;;;;;;5114221;28;20448;-75
2022/04/13 16:02:49;;;;;;;;;;;;;;;;;;5115368;28;19916;-74
2022/04/13 16:05:18;;;;;;;;;;;;;;;;;;5121627;27;19920;-73
2022/04/13 16:07:50;;;;;;;;;;;;;;;;;;5130703;27;19966;-76
2022/04/13 16:10:16;;;;;;;;;;;;;;;;;;5125518;27;19919;-74
2022/04/13 16:12:42;;;;;;;;;;;;;;;;;;5121612;27;19920;-77
2022/04/13 16:15:08;;;;;;;;;;;;;;;;;;5120404;27;20002;-76
2022/04/13 16:17:33;;;;;;;;;;;;;;;;;;5127118;27;19969;-76
2022/04/13 16:19:58;;;;;;;;;;;;;;;;;;5127046;27;19937;-76
2022/04/13 16:22:24;;;;;;;;;;;;;;;;;;5120565;27;19920;-75
2022/04/13 16:24:53;;;;;;;;;;;;;;;;;;5122043;27;20362;-76
2022/04/13 16:27:20;;;;;;;;;;;;;;;;;;5121201;27;19916;-74
2022/04/13 16:29:48;;;;;;;;;;;;;;;;;;5121080;27;20334;-76
2022/04/13 16:32:14;;;;;;;;;;;;;;;;;;5124832;27;19974;-75
2022/04/13 16:34:39;;;;;;;;;;;;;;;;;;5129979;27;20336;-76
2022/04/13 16:37:05;;;;;;;;;;;;;;;;;;5125539;27;20274;-77
2022/04/13 16:39:31;;;;;;;;;;;;;;;;;;5123992;27;20290;-77
2022/04/13 16:41:56;;;;;;;;;;;;;;;;;;5122456;27;19924;-76
2022/04/13 16:44:22;;;;;;;;;;;;;;;;;;5123501;27;19954;-78